createdAt,value
2019-06-26T00:09:16.920Z,97815.25
2019-06-26T00:11:43.930Z,97818.05
2019-06-26T00:14:10.706Z,97816.65
2019-06-26T00:16:37.645Z,97815.06
2019-06-26T00:19:04.497Z,97808.94
2019-06-26T00:21:31.281Z,97808.94
2019-06-26T00:23:58.242Z,97811.13
2019-06-26T00:26:24.920Z,97806.97
2019-06-26T00:28:51.571Z,97810.94
2019-06-26T00:31:18.351Z,97806.58
2019-06-26T00:33:45.234Z,97810.14
2019-06-26T00:36:11.988Z,97802.61
2019-06-26T00:38:40.133Z,97801.23
2019-06-26T00:41:07.226Z,97803.01
2019-06-26T00:43:42.249Z,97801.22
2019-06-26T00:46:02.810Z,97798.47
2019-06-26T00:48:29.585Z,97795.68
2019-06-26T00:50:56.376Z,97790.73
2019-06-26T00:53:23.129Z,97795.50
2019-06-26T00:55:50.095Z,97797.86
2019-06-26T00:58:17.001Z,97790.36
2019-06-26T01:00:51.236Z,97785.00
2019-06-26T01:03:18.113Z,97791.13
2019-06-26T01:05:44.977Z,97788.55
2019-06-26T01:08:11.746Z,97788.52
2019-06-26T01:10:38.427Z,97786.75
2019-06-26T01:13:05.331Z,97784.16
2019-06-26T01:15:32.105Z,97784.17
2019-06-26T01:17:58.791Z,97785.73
2019-06-26T01:20:25.706Z,97786.70
2019-06-26T01:22:52.694Z,97783.91
2019-06-26T01:25:19.676Z,97785.08
2019-06-26T01:27:46.464Z,97787.24
2019-06-26T01:30:13.818Z,97788.42
2019-06-26T01:32:40.607Z,97790.19
2019-06-26T01:35:08.075Z,97791.58
2019-06-26T01:37:34.874Z,97790.79
2019-06-26T01:40:04.635Z,97787.58
2019-06-26T01:42:31.403Z,97790.73
2019-06-26T01:44:58.162Z,97793.50
2019-06-26T01:47:25.096Z,97791.35
2019-06-26T01:49:51.882Z,97788.76
2019-06-26T01:52:18.643Z,97789.97
2019-06-26T01:54:45.400Z,97784.45
2019-06-26T01:57:12.158Z,97783.47
2019-06-26T01:59:38.934Z,97779.31
2019-06-26T02:02:05.699Z,97788.64
2019-06-26T02:04:32.473Z,97782.71
2019-06-26T02:06:59.249Z,97790.45
2019-06-26T02:09:26.107Z,97784.91
2019-06-26T02:11:52.987Z,97783.92
2019-06-26T02:14:30.484Z,97787.10
2019-06-26T02:16:48.416Z,97787.48
2019-06-26T02:19:17.094Z,97776.23
2019-06-26T02:21:43.858Z,97783.11
2019-06-26T02:24:10.659Z,97777.93
2019-06-26T02:26:37.414Z,97782.25
2019-06-26T02:29:04.203Z,97778.81
2019-06-26T02:31:31.058Z,97780.36
2019-06-26T02:33:57.947Z,97778.35
2019-06-26T02:36:24.713Z,97784.45
2019-06-26T02:38:51.487Z,97783.06
2019-06-26T02:41:19.041Z,97778.12
2019-06-26T02:43:45.810Z,97770.58
2019-06-26T02:46:12.667Z,97772.17
2019-06-26T02:48:39.559Z,97775.94
2019-06-26T02:51:06.310Z,97773.97
2019-06-26T02:53:33.089Z,97774.97
2019-06-26T02:55:59.916Z,97772.41
2019-06-26T02:58:26.722Z,97775.37
2019-06-26T03:00:53.482Z,97772.61
2019-06-26T03:03:20.268Z,97766.67
2019-06-26T03:05:47.239Z,97770.05
2019-06-26T03:08:15.265Z,97764.93
2019-06-26T03:10:42.026Z,97770.25
2019-06-26T03:13:09.026Z,97762.93
2019-06-26T03:15:35.792Z,97772.38
2019-06-26T03:18:03.109Z,97767.61
2019-06-26T03:20:35.680Z,97773.14
2019-06-26T03:23:02.912Z,97771.61
2019-06-26T03:25:29.718Z,97769.11
2019-06-26T03:27:56.570Z,97768.59
2019-06-26T03:30:23.562Z,97770.05
2019-06-26T03:32:50.712Z,97765.94
2019-06-26T03:35:17.678Z,97759.66
2019-06-26T03:37:44.328Z,97767.52
2019-06-26T03:40:11.597Z,97755.98
2019-06-26T03:42:38.480Z,97769.30
2019-06-26T03:45:06.174Z,97773.94
2019-06-26T03:47:32.959Z,97772.59
2019-06-26T03:49:59.863Z,97773.61
2019-06-26T03:52:26.569Z,97779.14
2019-06-26T03:54:53.415Z,97774.26
2019-06-26T03:57:20.084Z,97774.33
2019-06-26T03:59:46.850Z,97775.42
2019-06-26T04:02:13.615Z,97775.03
2019-06-26T04:04:40.287Z,97783.08
2019-06-26T04:07:07.075Z,97781.53
2019-06-26T04:09:33.939Z,97782.93
2019-06-26T04:12:00.726Z,97782.09
2019-06-26T04:14:27.483Z,97779.62
2019-06-26T04:16:54.139Z,97787.12
2019-06-26T04:19:20.868Z,97779.04
2019-06-26T04:21:47.513Z,97782.95
2019-06-26T04:24:14.379Z,97778.30
2019-06-26T04:26:41.163Z,97780.20
2019-06-26T04:29:07.852Z,97783.31
2019-06-26T04:31:34.661Z,97788.32
2019-06-26T04:34:01.588Z,97787.01
2019-06-26T04:36:28.355Z,97796.88
2019-06-26T04:38:55.356Z,97795.98
2019-06-26T04:41:22.437Z,97793.11
2019-06-26T04:43:49.083Z,97789.32
2019-06-26T04:46:15.874Z,97788.23
2019-06-26T04:48:42.533Z,97789.99
2019-06-26T04:51:09.199Z,97792.77
2019-06-26T04:53:35.954Z,97789.29
2019-06-26T04:56:04.118Z,97788.83
2019-06-26T04:58:30.766Z,97787.12
2019-06-26T05:00:57.592Z,97786.91
2019-06-26T05:03:24.371Z,97783.02
2019-06-26T05:05:51.248Z,97784.38
2019-06-26T05:08:18.100Z,97773.14
2019-06-26T05:10:46.946Z,97775.47
2019-06-26T05:13:13.751Z,97783.23
2019-06-26T05:15:40.647Z,97775.01
2019-06-26T05:18:07.704Z,97776.89
2019-06-26T05:20:34.503Z,97779.92
2019-06-26T05:23:01.259Z,97787.97
2019-06-26T05:25:28.134Z,97785.70
2019-06-26T05:27:54.914Z,97787.15
2019-06-26T05:30:23.686Z,97781.77
2019-06-26T05:32:50.914Z,97784.81
2019-06-26T05:35:18.171Z,97781.88
2019-06-26T05:37:44.939Z,97783.52
2019-06-26T05:40:13.517Z,97783.95
2019-06-26T05:42:40.381Z,97791.31
2019-06-26T05:45:08.627Z,97790.55
2019-06-26T05:47:35.479Z,97792.25
2019-06-26T05:50:05.379Z,97788.59
2019-06-26T05:52:32.640Z,97784.91
2019-06-26T05:54:59.407Z,97785.83
2019-06-26T05:57:26.203Z,97786.81
2019-06-26T05:59:52.994Z,97781.95
2019-06-26T06:02:19.832Z,97784.70
2019-06-26T06:04:46.604Z,97788.30
2019-06-26T06:07:13.368Z,97784.55
2019-06-26T06:09:40.137Z,97780.95
2019-06-26T06:12:06.914Z,97791.24
2019-06-26T06:14:33.663Z,97792.84
2019-06-26T06:17:00.551Z,97797.31
2019-06-26T06:19:27.469Z,97799.56
2019-06-26T06:21:54.241Z,97801.38
2019-06-26T06:24:21.004Z,97806.50
2019-06-26T06:26:47.778Z,97803.86
2019-06-26T06:29:14.536Z,97807.98
2019-06-26T06:31:41.421Z,97804.20
2019-06-26T06:34:08.170Z,97808.13
2019-06-26T06:36:34.981Z,97809.88
2019-06-26T06:39:01.831Z,97806.92
2019-06-26T06:41:28.616Z,97805.13
2019-06-26T06:43:55.372Z,97808.98
2019-06-26T06:46:22.238Z,97803.39
2019-06-26T06:48:49.006Z,97799.47
2019-06-26T06:51:15.802Z,97802.59
2019-06-26T06:53:42.631Z,97800.80
2019-06-26T06:56:09.428Z,97796.81
2019-06-26T06:58:36.356Z,97795.94
2019-06-26T07:01:03.411Z,97797.20
2019-06-26T07:03:30.160Z,97792.20
2019-06-26T07:05:57.201Z,97790.05
2019-06-26T07:08:24.170Z,97792.84
2019-06-26T07:10:50.960Z,97797.58
2019-06-26T07:13:17.754Z,97796.21
2019-06-26T07:15:44.667Z,97788.63
2019-06-26T07:18:11.446Z,97784.78
2019-06-26T07:20:38.330Z,97779.66
2019-06-26T07:23:05.405Z,97784.94
2019-06-26T07:25:32.274Z,97786.97
2019-06-26T07:28:01.777Z,97783.67
2019-06-26T07:30:27.985Z,97785.68
2019-06-26T07:32:54.996Z,97788.73
2019-06-26T07:35:21.763Z,97784.23
2019-06-26T07:37:48.536Z,97782.47
2019-06-26T07:40:15.802Z,97784.47
2019-06-26T07:42:42.680Z,97775.62
2019-06-26T07:45:10.122Z,97780.16
2019-06-26T07:47:43.169Z,97778.62
2019-06-26T07:50:07.055Z,97783.50
2019-06-26T07:52:34.325Z,97777.10
2019-06-26T07:55:01.193Z,97770.16
2019-06-26T07:57:28.100Z,97772.77
2019-06-26T07:59:54.959Z,97775.04
2019-06-26T08:02:21.731Z,97778.27
2019-06-26T08:04:48.490Z,97771.33
2019-06-26T08:07:15.424Z,97774.42
2019-06-26T08:09:44.041Z,97766.20
2019-06-26T08:12:11.067Z,97766.55
2019-06-26T08:14:37.837Z,97762.77
2019-06-26T08:17:04.737Z,97766.86
2019-06-26T08:19:31.541Z,97762.61
2019-06-26T08:21:58.454Z,97758.84
2019-06-26T08:24:25.328Z,97758.67
2019-06-26T08:26:52.250Z,97750.88
2019-06-26T08:29:18.950Z,97749.38
2019-06-26T08:31:45.892Z,97756.21
2019-06-26T08:34:12.751Z,97757.27
2019-06-26T08:36:40.115Z,97757.93
2019-06-26T08:39:06.882Z,97756.69
2019-06-26T08:41:33.643Z,97746.94
2019-06-26T08:44:00.430Z,97745.36
2019-06-26T08:46:27.191Z,97748.83
2019-06-26T08:48:54.043Z,97746.34
2019-06-26T08:51:21.000Z,97745.08
2019-06-26T08:53:47.816Z,97744.16
2019-06-26T08:56:14.592Z,97741.52
2019-06-26T08:58:41.397Z,97746.61
2019-06-26T09:01:08.162Z,97742.12
2019-06-26T09:03:35.328Z,97730.20
2019-06-26T09:06:02.088Z,97734.53
2019-06-26T09:08:29.040Z,97726.16
2019-06-26T09:10:55.951Z,97730.34
2019-06-26T09:13:23.107Z,97722.93
2019-06-26T09:15:50.331Z,97720.37
2019-06-26T09:18:34.061Z,97720.83
2019-06-26T09:20:46.078Z,97721.89
2019-06-26T09:23:12.971Z,97724.23
2019-06-26T09:25:39.740Z,97717.85
2019-06-26T09:28:06.734Z,97714.78
2019-06-26T09:30:33.936Z,97708.14
2019-06-26T09:33:01.106Z,97712.89
2019-06-26T09:35:28.301Z,97719.86
2019-06-26T09:37:55.359Z,97705.09
2019-06-26T09:40:22.497Z,97708.13
2019-06-26T09:42:49.604Z,97703.73
2019-06-26T09:45:16.876Z,97694.89
2019-06-26T09:47:43.673Z,97702.72
2019-06-26T09:50:11.832Z,97692.97
2019-06-26T09:52:38.692Z,97692.19
2019-06-26T09:55:07.081Z,97688.12
2019-06-26T09:57:34.032Z,97694.71
2019-06-26T10:00:00.922Z,97683.98
2019-06-26T10:02:27.794Z,97683.70
2019-06-26T10:04:54.763Z,97682.56
2019-06-26T10:07:21.495Z,97683.65
2019-06-26T10:09:48.386Z,97680.91
2019-06-26T10:12:15.362Z,97678.21
2019-06-26T10:14:47.724Z,97675.53
2019-06-26T10:17:11.078Z,97678.16
2019-06-26T10:19:37.873Z,97671.86
2019-06-26T10:22:04.723Z,97669.03
2019-06-26T10:24:31.598Z,97665.88
2019-06-26T10:26:58.471Z,97666.92
2019-06-26T10:29:25.281Z,97672.89
2019-06-26T10:31:52.060Z,97644.45
2019-06-26T10:34:19.082Z,97655.46
2019-06-26T10:36:46.007Z,97655.46
2019-06-26T10:39:12.777Z,97660.96
2019-06-26T10:41:39.634Z,97657.41
2019-06-26T10:44:06.752Z,97664.09
2019-06-26T10:46:33.617Z,97658.02
2019-06-26T10:49:00.390Z,97657.72
2019-06-26T10:51:27.195Z,97643.09
2019-06-26T10:53:55.074Z,97653.14
2019-06-26T10:56:21.984Z,97653.41
2019-06-26T10:58:48.961Z,97648.13
2019-06-26T11:01:15.842Z,97640.11
2019-06-26T11:03:42.714Z,97645.70
2019-06-26T11:06:09.567Z,97638.72
2019-06-26T11:08:36.499Z,97634.38
2019-06-26T11:11:03.445Z,97636.66
2019-06-26T11:13:30.342Z,97630.84
2019-06-26T11:15:57.112Z,97631.77
2019-06-26T11:18:24.123Z,97607.94
2019-06-26T11:20:51.093Z,97622.97
2019-06-26T11:23:17.868Z,97621.17
2019-06-26T11:25:44.861Z,97624.38
2019-06-26T11:28:11.655Z,97621.88
2019-06-26T11:30:38.431Z,97619.86
2019-06-26T11:33:05.344Z,97620.63
2019-06-26T11:35:32.324Z,97615.55
2019-06-26T11:37:59.203Z,97607.88
2019-06-26T11:40:26.257Z,97605.97
2019-06-26T11:42:53.005Z,97606.06
2019-06-26T11:45:20.510Z,97607.42
2019-06-26T11:47:47.461Z,97601.12
2019-06-26T11:50:14.757Z,97598.27
2019-06-26T11:52:41.719Z,97604.94
2019-06-26T11:55:09.186Z,97601.45
2019-06-26T11:57:36.145Z,97601.72
2019-06-26T12:00:08.063Z,97599.50
2019-06-26T12:02:34.855Z,97584.97
2019-06-26T12:05:02.067Z,97584.72
2019-06-26T12:07:28.925Z,97585.02
2019-06-26T12:09:55.922Z,97576.72
2019-06-26T12:12:22.867Z,97574.81
2019-06-26T12:14:49.758Z,97568.47
2019-06-26T12:17:16.678Z,97566.80
2019-06-26T12:19:43.446Z,97564.30
2019-06-26T12:22:10.343Z,97560.72
2019-06-26T12:24:37.226Z,97550.67
2019-06-26T12:27:04.183Z,97559.20
2019-06-26T12:29:33.026Z,97559.59
2019-06-26T12:31:59.754Z,97552.30
2019-06-26T12:34:26.534Z,97548.98
2019-06-26T12:36:55.070Z,97545.94
2019-06-26T12:39:21.994Z,97550.33
2019-06-26T12:41:48.788Z,97538.72
2019-06-26T12:44:15.525Z,97535.66
2019-06-26T12:46:42.375Z,97537.29
2019-06-26T12:49:09.148Z,97530.37
2019-06-26T12:51:36.147Z,97524.98
2019-06-26T12:54:03.118Z,97525.49
2019-06-26T12:56:30.172Z,97524.08
2019-06-26T12:58:59.832Z,97521.73
2019-06-26T13:01:25.984Z,97516.90
2019-06-26T13:03:52.783Z,97519.34
2019-06-26T13:06:19.644Z,97507.31
2019-06-26T13:08:46.511Z,97513.30
2019-06-26T13:11:13.400Z,97508.46
2019-06-26T13:13:40.282Z,97504.73
2019-06-26T13:16:07.039Z,97505.58
2019-06-26T13:18:33.839Z,97506.99
2019-06-26T13:21:04.065Z,97504.73
2019-06-26T13:23:29.824Z,97499.05
2019-06-26T13:25:56.590Z,97501.03
2019-06-26T13:28:23.567Z,97488.24
2019-06-26T13:30:53.211Z,97495.27
2019-06-26T13:33:19.280Z,97491.52
2019-06-26T13:35:46.376Z,97494.37
2019-06-26T13:38:13.473Z,97485.03
2019-06-26T13:40:41.215Z,97486.00
2019-06-26T13:43:08.334Z,97490.27
2019-06-26T13:45:35.084Z,97488.92
2019-06-26T13:48:02.189Z,97468.45
2019-06-26T13:50:29.090Z,97476.69
2019-06-26T13:52:56.017Z,97470.29
2019-06-26T13:55:22.985Z,97463.44
2019-06-26T13:57:49.782Z,97466.73
2019-06-26T14:00:17.152Z,97464.61
2019-06-26T14:02:44.023Z,97459.19
2019-06-26T14:05:11.586Z,97460.33
2019-06-26T14:07:38.391Z,97460.81
2019-06-26T14:10:08.918Z,97454.86
2019-06-26T14:12:35.882Z,97432.95
2019-06-26T14:15:05.435Z,97454.61
2019-06-26T14:17:32.318Z,97449.89
2019-06-26T14:19:59.167Z,97450.32
2019-06-26T14:22:25.930Z,97443.73
2019-06-26T14:24:54.243Z,97438.92
2019-06-26T14:27:21.273Z,97439.46
2019-06-26T14:29:48.027Z,97446.55
2019-06-26T14:32:14.895Z,97431.39
2019-06-26T14:34:41.695Z,97429.88
2019-06-26T14:37:08.569Z,97436.84
2019-06-26T14:39:35.462Z,97429.02
2019-06-26T14:42:02.332Z,97422.31
2019-06-26T14:44:29.087Z,97421.27
2019-06-26T14:46:55.897Z,97422.27
2019-06-26T14:49:22.674Z,97418.56
2019-06-26T14:51:49.538Z,97411.05
2019-06-26T14:54:16.204Z,97414.50
2019-06-26T14:56:42.991Z,97407.17
2019-06-26T14:59:09.671Z,97399.05
2019-06-26T15:01:36.333Z,97402.84
2019-06-26T15:04:03.266Z,97404.42
2019-06-26T15:06:30.093Z,97395.53
2019-06-26T15:08:56.947Z,97397.89
2019-06-26T15:11:23.890Z,97396.95
2019-06-26T15:13:50.704Z,97402.28
2019-06-26T15:16:17.338Z,97401.04
2019-06-26T15:18:44.168Z,97399.17
2019-06-26T15:21:10.854Z,97390.59
2019-06-26T15:23:37.527Z,97388.52
2019-06-26T15:26:04.271Z,97381.19
2019-06-26T15:28:31.103Z,97386.67
2019-06-26T15:30:58.050Z,97386.37
2019-06-26T15:33:24.847Z,97380.25
2019-06-26T15:35:51.697Z,97375.87
2019-06-26T15:38:18.561Z,97377.32
2019-06-26T15:40:45.245Z,97370.13
2019-06-26T15:43:12.070Z,97370.80
2019-06-26T15:45:39.711Z,97367.86
2019-06-26T15:48:06.764Z,97368.65
2019-06-26T15:50:33.530Z,97362.42
2019-06-26T15:53:00.340Z,97365.55
2019-06-26T15:55:27.014Z,97359.95
2019-06-26T15:57:53.791Z,97355.89
2019-06-26T16:00:20.903Z,97359.81
2019-06-26T16:02:47.786Z,97351.52
2019-06-26T16:05:14.986Z,97355.12
2019-06-26T16:07:41.947Z,97359.53
2019-06-26T16:10:08.897Z,97355.47
2019-06-26T16:12:35.709Z,97352.05
2019-06-26T16:15:04.566Z,97345.48
2019-06-26T16:17:33.247Z,97356.00
2019-06-26T16:19:59.891Z,97355.24
2019-06-26T16:22:32.300Z,97342.26
2019-06-26T16:24:55.330Z,97346.02
2019-06-26T16:27:22.095Z,97350.42
2019-06-26T16:29:49.670Z,97346.19
2019-06-26T16:32:16.328Z,97352.95
2019-06-26T16:34:43.216Z,97341.37
2019-06-26T16:37:09.963Z,97346.53
2019-06-26T16:39:36.977Z,97338.39
2019-06-26T16:42:04.430Z,97344.02
2019-06-26T16:44:31.270Z,97346.23
2019-06-26T16:46:59.331Z,97338.75
2019-06-26T16:49:26.490Z,97339.54
2019-06-26T16:51:53.394Z,97335.33
2019-06-26T16:54:20.109Z,97340.80
2019-06-26T16:56:46.791Z,97342.05
2019-06-26T16:59:13.606Z,97345.02
2019-06-26T17:01:40.471Z,97345.01
2019-06-26T17:04:07.258Z,97333.45
2019-06-26T17:06:34.099Z,97338.47
2019-06-26T17:09:00.793Z,97337.04
2019-06-26T17:11:27.764Z,97332.99
2019-06-26T17:13:54.744Z,97336.11
2019-06-26T17:16:21.515Z,97327.52
2019-06-26T17:18:48.287Z,97334.06
2019-06-26T17:21:14.969Z,97336.88
2019-06-26T17:23:41.773Z,97334.37
2019-06-26T17:26:08.646Z,97330.13
2019-06-26T17:28:35.322Z,97334.16
2019-06-26T17:31:02.469Z,97332.14
2019-06-26T17:33:29.319Z,97338.84
2019-06-26T17:35:56.323Z,97334.46
2019-06-26T17:38:23.080Z,97338.35
2019-06-26T17:40:49.760Z,97333.84
2019-06-26T17:43:16.510Z,97333.36
2019-06-26T17:45:43.281Z,97333.81
2019-06-26T17:48:09.937Z,97335.52
2019-06-26T17:50:36.629Z,97332.68
2019-06-26T17:53:03.583Z,97338.91
2019-06-26T17:55:30.248Z,97335.32
2019-06-26T17:57:57.207Z,97329.67
2019-06-26T18:00:29.693Z,97333.39
2019-06-26T18:02:56.598Z,97331.85
2019-06-26T18:05:23.397Z,97336.19
2019-06-26T18:07:50.054Z,97337.23
2019-06-26T18:10:16.840Z,97329.56
2019-06-26T18:12:43.716Z,97323.61
2019-06-26T18:15:10.793Z,97331.69
2019-06-26T18:17:37.690Z,97333.20
2019-06-26T18:20:06.982Z,97331.58
2019-06-26T18:22:34.027Z,97332.19
2019-06-26T18:25:00.969Z,97337.78
2019-06-26T18:27:27.765Z,97334.60
2019-06-26T18:29:54.575Z,97341.12
2019-06-26T18:32:21.249Z,97345.92
2019-06-26T18:34:47.915Z,97335.44
2019-06-26T18:37:14.869Z,97346.78
2019-06-26T18:39:41.651Z,97346.14
2019-06-26T18:42:08.405Z,97344.72
2019-06-26T18:44:35.335Z,97345.73
2019-06-26T18:47:02.143Z,97345.03
2019-06-26T18:49:28.819Z,97346.86
2019-06-26T18:51:55.517Z,97347.45
2019-06-26T18:54:22.330Z,97348.05
2019-06-26T18:56:49.083Z,97350.42
2019-06-26T18:59:15.979Z,97356.33
2019-06-26T19:01:42.664Z,97349.89
2019-06-26T19:04:09.423Z,97351.88
2019-06-26T19:06:36.238Z,97347.02
2019-06-26T19:09:05.626Z,97350.38
2019-06-26T19:11:32.514Z,97356.56
2019-06-26T19:13:59.248Z,97347.17
2019-06-26T19:16:26.038Z,97354.72
2019-06-26T19:18:52.715Z,97358.98
2019-06-26T19:21:19.383Z,97351.27
2019-06-26T19:23:46.139Z,97362.87
2019-06-26T19:26:12.940Z,97353.71
2019-06-26T19:28:39.891Z,97359.71
2019-06-26T19:31:06.668Z,97357.31
2019-06-26T19:33:33.630Z,97359.72
2019-06-26T19:36:00.504Z,97349.68
2019-06-26T19:38:27.295Z,97355.05
2019-06-26T19:40:53.956Z,97349.24
2019-06-26T19:43:20.627Z,97348.06
2019-06-26T19:45:47.297Z,97351.08
2019-06-26T19:48:14.063Z,97344.41
2019-06-26T19:50:40.942Z,97341.22
2019-06-26T19:53:07.701Z,97338.80
2019-06-26T19:55:34.395Z,97337.50
2019-06-26T19:58:01.172Z,97334.47
2019-06-26T20:00:28.006Z,97336.69
2019-06-26T20:02:54.839Z,97340.30
2019-06-26T20:05:21.638Z,97328.37
2019-06-26T20:07:48.320Z,97323.16
2019-06-26T20:10:16.638Z,97329.80
2019-06-26T20:12:43.521Z,97326.65
2019-06-26T20:15:10.705Z,97327.90
2019-06-26T20:17:37.795Z,97327.98
2019-06-26T20:20:08.281Z,97328.50
2019-06-26T20:22:35.175Z,97322.39
2019-06-26T20:25:06.296Z,97321.25
2019-06-26T20:27:33.199Z,97323.19
2019-06-26T20:30:00.071Z,97321.13
2019-06-26T20:32:26.823Z,97320.42
2019-06-26T20:34:53.579Z,97320.06
2019-06-26T20:37:20.371Z,97318.49
2019-06-26T20:39:47.150Z,97316.95
2019-06-26T20:42:13.959Z,97318.17
2019-06-26T20:44:40.723Z,97319.39
2019-06-26T20:47:07.515Z,97317.38
2019-06-26T20:49:34.272Z,97317.47
2019-06-26T20:52:01.081Z,97319.47
2019-06-26T20:54:27.953Z,97317.11
2019-06-26T20:56:54.807Z,97315.72
2019-06-26T20:59:21.466Z,97317.28
2019-06-26T21:01:48.258Z,97315.28
2019-06-26T21:04:15.016Z,97307.26
2019-06-26T21:06:41.818Z,97309.80
2019-06-26T21:09:08.613Z,97306.10
2019-06-26T21:11:35.293Z,97301.59
2019-06-26T21:14:01.977Z,97310.84
2019-06-26T21:16:28.852Z,97307.87
2019-06-26T21:18:55.645Z,97309.20
2019-06-26T21:21:22.504Z,97309.81
2019-06-26T21:23:49.271Z,97308.06
2019-06-26T21:26:15.991Z,97305.95
2019-06-26T21:28:42.647Z,97306.67
2019-06-26T21:31:09.615Z,97297.52
2019-06-26T21:33:36.863Z,97300.83
2019-06-26T21:36:03.767Z,97302.30
2019-06-26T21:38:30.533Z,97290.95
2019-06-26T21:40:57.378Z,97299.94
2019-06-26T21:43:24.170Z,97310.00
2019-06-26T21:45:50.931Z,97306.42
2019-06-26T21:48:17.718Z,97303.53
2019-06-26T21:50:44.461Z,97312.80
2019-06-26T21:53:11.176Z,97306.69
2019-06-26T21:55:37.839Z,97305.11
2019-06-26T21:58:04.731Z,97304.07
2019-06-26T22:00:33.695Z,97304.75
2019-06-26T22:03:00.494Z,97294.53
2019-06-26T22:05:27.711Z,97289.97
2019-06-26T22:07:54.386Z,97291.64
2019-06-26T22:10:21.240Z,97289.88
2019-06-26T22:12:48.173Z,97284.95
2019-06-26T22:15:15.334Z,97286.70
2019-06-26T22:17:42.112Z,97290.28
2019-06-26T22:20:12.488Z,97281.03
2019-06-26T22:22:38.538Z,97281.64
2019-06-26T22:25:06.989Z,97285.48
2019-06-26T22:27:33.954Z,97274.39
2019-06-26T22:30:00.819Z,97284.37
2019-06-26T22:32:27.781Z,97283.00
2019-06-26T22:34:54.534Z,97272.37
2019-06-26T22:37:21.331Z,97276.31
2019-06-26T22:39:48.162Z,97272.82
2019-06-26T22:42:15.181Z,97263.84
2019-06-26T22:44:41.934Z,97267.80
2019-06-26T22:47:08.747Z,97263.36
2019-06-26T22:49:35.409Z,97266.73
2019-06-26T22:52:02.284Z,97270.14
2019-06-26T22:54:29.160Z,97263.95
2019-06-26T22:56:55.927Z,97257.34
2019-06-26T22:59:22.695Z,97258.80
2019-06-26T23:01:49.454Z,97258.73
2019-06-26T23:04:16.263Z,97249.22
2019-06-26T23:06:43.024Z,97256.19
2019-06-26T23:09:09.872Z,97250.87
2019-06-26T23:11:36.545Z,97251.91
2019-06-26T23:14:03.447Z,97253.30
2019-06-26T23:16:30.193Z,97252.08
2019-06-26T23:18:57.077Z,97251.58
2019-06-26T23:21:23.869Z,97251.40
2019-06-26T23:23:50.539Z,97246.68
2019-06-26T23:26:23.988Z,97249.14
2019-06-26T23:28:45.993Z,97252.97
2019-06-26T23:31:12.789Z,97245.45
2019-06-26T23:33:39.469Z,97248.06
2019-06-26T23:36:06.257Z,97247.73
2019-06-26T23:38:33.371Z,97255.92
2019-06-26T23:41:00.219Z,97249.20
2019-06-26T23:43:26.903Z,97244.94
2019-06-26T23:45:53.767Z,97242.80
2019-06-26T23:48:20.544Z,97239.14
2019-06-26T23:50:47.417Z,97240.61
2019-06-26T23:53:14.327Z,97241.73
2019-06-26T23:55:41.024Z,97238.23
2019-06-26T23:58:07.800Z,97236.14
